Nearby METAR Reports

 

KBGR - Bangor, Maine, USA
Distance from station: E 5mi, 8km
Updated: Sat, 26-Nov-2022 12:53pm EST
Few Clouds
Few Clouds
 Wind from WNW
Wind: WNW 12 mph , 19 km/h, Gust: 24 mph , 39 km/h
Temperature: 41°F , 5°C
Wind Chill: 34°F , 1°C
Dew Point: 21°F , -6°C
Humidity: 45%
Barometer: 29.74 inHg , 1007.1 hPa
Clouds: Few Clouds
Visibility: 10 miles , 16 km
Cloud details: Few Clouds 15000 ft
2022/11/26 17:53 KBGR 261753Z 30010G21KT 10SM FEW150 05/M06 A2974 RMK AO2 PK WND 33026/1739 SLP072 T00501056 10056 20028 58017
KBHB - Bar Harbor, Maine, USA
Distance from station: SE 37mi, 59km
Updated: Sat, 26-Nov-2022 12:56pm EST
Clear
Clear
 Wind from NW
Wind: NW 9 mph , 15 km/h
Temperature: 41°F , 5°C
Wind Chill: 35°F , 2°C
Dew Point: 21°F , -6°C
Humidity: 45%
Barometer: 29.72 inHg , 1006.4 hPa
Clouds: Clear
Visibility: 10 miles , 16 km
2022/11/26 17:56 KBHB 261756Z AUTO 32008KT 270V010 10SM CLR 05/M06 A2972 RMK AO2 SLP068 T00501061 10050 20028 58004
 
KAUG - Augusta, Maine, USA
Distance from station: SW 55mi, 89km
Updated: Sat, 26-Nov-2022 12:53pm EST
Clear
Clear
 Wind from NW
Wind: NW 8 mph , 13 km/h, Gust: 20 mph , 31 km/h
Temperature: 45°F , 7°C
Wind Chill: 41°F , 5°C
Dew Point: 21°F , -6°C
Humidity: 39%
Barometer: 29.78 inHg , 1008.5 hPa
Clouds: Clear
Visibility: 10 miles , 16 km
2022/11/26 17:53 KAUG 261753Z AUTO 31007G17KT 10SM CLR 07/M06 A2978 RMK AO2 SLP087 T00671056 10067 20011 56016
KGNR - Greenville, Maine, USA
Distance from station: NW 55mi, 89km
Updated: Sat, 26-Nov-2022 12:56pm EST

 Wind from NW
Wind: NW 15 mph , 24 km/h, Gust: 35 mph , 56 km/h
Temperature: 34°F , 1°C
Wind Chill: 24°F , -4°C
Dew Point: 21°F , -6°C
Humidity: 60%
Barometer: 29.70 inHg , 1005.8 hPa
2022/11/26 17:56 KGNR 261756Z AUTO 31013G30KT 280V340 01/M06 A2970 RMK AO1 PK WND 30031/1700 SLP073 T00111061 10011 21011 55006
 
KMLT - Millinocket, Maine, USA
Distance from station: N 59mi, 95km
Updated: Sat, 26-Nov-2022 12:53pm EST
Clear
Clear
 Wind from WNW
Wind: WNW 17 mph , 28 km/h, Gust: 32 mph , 52 km/h
Temperature: 37°F , 3°C
Wind Chill: 27°F , -3°C
Dew Point: 25°F , -4°C
Humidity: 60%
Barometer: 29.74 inHg , 1007.1 hPa
Clouds: Clear
Visibility: 10 miles , 16 km
2022/11/26 17:53 KMLT 261753Z AUTO 30015G28KT 10SM CLR 03/M04 A2974 RMK AO2 PK WND 30028/1748 SLP078 T00281044 10028 20011 58012
KLEW - Auburn/Lewiston, Maine, USA
Distance from station: SW 86mi, 138km
Updated: Sat, 26-Nov-2022 12:56pm EST
Clear
Clear
 Wind from NW
Wind: NW 12 mph , 19 km/h, Gust: 20 mph , 31 km/h
Temperature: 45°F , 7°C
Wind Chill: 39°F , 4°C
Dew Point: 23°F , -5°C
Humidity: 42%
Barometer: 29.79 inHg , 1008.8 hPa
Clouds: Clear
Visibility: 10 miles , 16 km
2022/11/26 17:56 KLEW 261756Z AUTO 32010G17KT 10SM CLR 07/M05 A2979 RMK AO2 SLP098 T00671050 10067 20011 56016
 
KHUL - Houlton, Maine, USA
Distance from station: NNE 105mi, 169km
Updated: Sat, 26-Nov-2022 12:53pm EST
Overcast
Overcast
 Wind from WNW
Wind: WNW 9 mph , 15 km/h, Gust: 23 mph , 37 km/h
Temperature: 37°F , 3°C
Wind Chill: 30°F , -1°C
Dew Point: 25°F , -4°C
Humidity: 60%
Barometer: 29.67 inHg , 1004.7 hPa
Clouds: Overcast
Visibility: 10 miles , 16 km
Cloud details: Overcast 3400 ft
2022/11/26 17:53 KHUL 261753Z AUTO 30008G20KT 10SM OVC034 03/M04 A2967 RMK AO2 PK WND 33027/1704 SLP053 T00331044 10033 20006 58007
KPWM - Portland, Maine, USA
Distance from station: SW 105mi, 170km
Updated: Sat, 26-Nov-2022 12:51pm EST
Few Clouds
Few Clouds
 Wind from W
Wind: W 8 mph , 13 km/h
Temperature: 46°F , 8°C
Wind Chill: 42°F , 6°C
Dew Point: 23°F , -5°C
Humidity: 40%
Barometer: 29.80 inHg , 1009.1 hPa
Clouds: Few Clouds
Visibility: 10 miles , 16 km
Cloud details: Few Clouds 25000 ft
2022/11/26 17:51 KPWM 261751Z 27007KT 10SM FEW250 08/M05 A2980 RMK AO2 SLP093 T00781050 10078 20000 58020
 
KBML - Berlin, New Hampshire, USA
Distance from station: W 113mi, 181km
Updated: Sat, 26-Nov-2022 12:52pm EST
Clear
Clear
 Wind from W
Wind: W 9 mph , 15 km/h, Gust: 21 mph , 33 km/h
Temperature: 39°F , 4°C
Wind Chill: 33°F , 1°C
Dew Point: 25°F , -4°C
Humidity: 56%
Barometer: 29.80 inHg , 1009.1 hPa
Clouds: Clear
Visibility: 10 miles , 16 km
2022/11/26 17:52 KBML 261752Z AUTO 28008G18KT 10SM CLR 04/M04 A2980 RMK AO2 SLP102 T00441039 10044 20000 56023
KIZG - Fryeburg, Maine, USA
Distance from station: WSW 116mi, 186km
Updated: Sat, 26-Nov-2022 12:54pm EST
Clear
Clear
 Wind from calm
Wind: Calm
Temperature: 48°F , 9°C
Dew Point: 21°F , -6°C
Humidity: 34%
Barometer: 29.79 inHg , 1008.8 hPa
Clouds: Clear
Visibility: 10 miles , 16 km
2022/11/26 17:54 KIZG 261754Z AUTO 00000KT 10SM CLR 09/M06 A2979 RMK AO2 SLP091 T00891056 10089 21028 58016
 
KMWN - Mount Washington, New Hampshire, USA
Distance from station: WSW 123mi, 198km
Updated: Sat, 26-Nov-2022 12:52pm EST

 Wind from NW
Wind: NW 75 mph , 120 km/h, Gust: 83 mph , 133 km/h
Visibility: 110 miles , 176 km
2022/11/26 17:52 KMWN 261752Z 31065G72KT 110SM FEW/// SCT200 M07/M10 RMK BLSN BLO STA ALQDS 4/007 11058 21129
KCAR - Caribou, Maine, USA
Distance from station: NNE 148mi, 238km
Updated: Sat, 26-Nov-2022 12:54pm EST
Clear
Clear
 Wind from NW
Wind: NW 9 mph , 15 km/h
Temperature: 36°F , 2°C
Wind Chill: 29°F , -2°C
Dew Point: 25°F , -4°C
Humidity: 65%
Barometer: 29.67 inHg , 1004.7 hPa
Clouds: Clear
Visibility: 10 miles , 16 km
2022/11/26 17:54 KCAR 261754Z AUTO 32008KT 10SM CLR 02/M04 A2967 RMK AO2 SLP059 T00221044 10022 21017 58008